sensor_id;sensor_type;location;lat;lon;timestamp;P1;durP1;ratioP1;P2;durP2;ratioP2
1082;SDS011;530;51.448;7.238;2023-02-04T00:00:50;14.23;;;4.37;;
1082;SDS011;530;51.448;7.238;2023-02-04T00:03:16;15.97;;;3.93;;
1082;SDS011;530;51.448;7.238;2023-02-04T00:05:41;24.67;;;6.07;;
1082;SDS011;530;51.448;7.238;2023-02-04T00:08:07;16.37;;;3.57;;
1082;SDS011;530;51.448;7.238;2023-02-04T00:10:33;24.50;;;5.47;;
1082;SDS011;530;51.448;7.238;2023-02-04T00:13:00;13.43;;;3.97;;
1082;SDS011;530;51.448;7.238;2023-02-04T00:15:29;16.50;;;4.63;;
1082;SDS011;530;51.448;7.238;2023-02-04T00:17:55;19.90;;;5.50;;
1082;SDS011;530;51.448;7.238;2023-02-04T00:20:21;15.27;;;4.90;;
1082;SDS011;530;51.448;7.238;2023-02-04T00:22:47;15.20;;;3.23;;
1082;SDS011;530;51.448;7.238;2023-02-04T00:25:12;16.10;;;3.70;;
1082;SDS011;530;51.448;7.238;2023-02-04T00:27:38;11.57;;;4.03;;
1082;SDS011;530;51.448;7.238;2023-02-04T00:30:04;18.00;;;4.53;;
1082;SDS011;530;51.448;7.238;2023-02-04T00:32:30;9.67;;;3.70;;
1082;SDS011;530;51.448;7.238;2023-02-04T00:34:58;14.90;;;4.43;;
1082;SDS011;530;51.448;7.238;2023-02-04T00:37:25;12.90;;;3.83;;
1082;SDS011;530;51.448;7.238;2023-02-04T00:39:51;14.43;;;3.43;;
1082;SDS011;530;51.448;7.238;2023-02-04T00:42:17;15.17;;;4.50;;
1082;SDS011;530;51.448;7.238;2023-02-04T00:44:43;14.37;;;4.50;;
1082;SDS011;530;51.448;7.238;2023-02-04T00:47:08;19.40;;;4.40;;
1082;SDS011;530;51.448;7.238;2023-02-04T00:49:34;16.83;;;4.23;;
1082;SDS011;530;51.448;7.238;2023-02-04T00:51:59;20.03;;;4.43;;
1082;SDS011;530;51.448;7.238;2023-02-04T00:54:25;19.93;;;3.80;;
1082;SDS011;530;51.448;7.238;2023-02-04T00:56:52;17.13;;;4.87;;
1082;SDS011;530;51.448;7.238;2023-02-04T00:59:17;11.67;;;4.17;;
1082;SDS011;530;51.448;7.238;2023-02-04T01:01:43;20.47;;;4.10;;
1082;SDS011;530;51.448;7.238;2023-02-04T01:04:08;15.00;;;4.17;;
1082;SDS011;530;51.448;7.238;2023-02-04T01:06:34;20.97;;;5.50;;
1082;SDS011;530;51.448;7.238;2023-02-04T01:09:00;15.20;;;4.50;;
1082;SDS011;530;51.448;7.238;2023-02-04T01:11:27;17.60;;;4.40;;
1082;SDS011;530;51.448;7.238;2023-02-04T01:13:53;17.87;;;4.27;;
1082;SDS011;530;51.448;7.238;2023-02-04T01:16:19;23.00;;;4.60;;
1082;SDS011;530;51.448;7.238;2023-02-04T01:18:44;21.77;;;4.27;;
1082;SDS011;530;51.448;7.238;2023-02-04T01:21:10;16.87;;;4.03;;
1082;SDS011;530;51.448;7.238;2023-02-04T01:23:36;14.60;;;3.97;;
1082;SDS011;530;51.448;7.238;2023-02-04T01:26:02;15.43;;;4.23;;
1082;SDS011;530;51.448;7.238;2023-02-04T01:28:28;12.00;;;3.60;;
1082;SDS011;530;51.448;7.238;2023-02-04T01:30:54;16.00;;;4.13;;
1082;SDS011;530;51.448;7.238;2023-02-04T01:33:20;18.77;;;5.20;;
1082;SDS011;530;51.448;7.238;2023-02-04T01:35:46;17.70;;;4.43;;
1082;SDS011;530;51.448;7.238;2023-02-04T01:38:11;16.57;;;5.37;;
1082;SDS011;530;51.448;7.238;2023-02-04T01:40:37;16.40;;;4.10;;
1082;SDS011;530;51.448;7.238;2023-02-04T01:43:03;10.40;;;3.83;;
1082;SDS011;530;51.448;7.238;2023-02-04T01:45:29;14.27;;;4.67;;
1082;SDS011;530;51.448;7.238;2023-02-04T01:47:58;13.30;;;4.80;;
1082;SDS011;530;51.448;7.238;2023-02-04T01:50:24;14.83;;;4.40;;
1082;SDS011;530;51.448;7.238;2023-02-04T01:52:50;17.23;;;4.90;;
1082;SDS011;530;51.448;7.238;2023-02-04T01:55:17;21.10;;;3.93;;
1082;SDS011;530;51.448;7.238;2023-02-04T01:57:44;20.53;;;5.30;;
1082;SDS011;530;51.448;7.238;2023-02-04T02:00:17;13.00;;;3.90;;
1082;SDS011;530;51.448;7.238;2023-02-04T02:02:48;12.20;;;3.90;;
1082;SDS011;530;51.448;7.238;2023-02-04T02:05:30;13.83;;;4.40;;
1082;SDS011;530;51.448;7.238;2023-02-04T02:08:00;22.10;;;6.07;;
1082;SDS011;530;51.448;7.238;2023-02-04T02:10:27;14.20;;;4.70;;
1082;SDS011;530;51.448;7.238;2023-02-04T02:12:54;23.27;;;5.00;;
1082;SDS011;530;51.448;7.238;2023-02-04T02:15:21;13.80;;;4.40;;
1082;SDS011;530;51.448;7.238;2023-02-04T02:17:47;22.50;;;5.60;;
1082;SDS011;530;51.448;7.238;2023-02-04T02:20:14;14.70;;;4.67;;
1082;SDS011;530;51.448;7.238;2023-02-04T02:25:16;26.80;;;4.73;;
1082;SDS011;530;51.448;7.238;2023-02-04T02:27:42;15.23;;;4.07;;
1082;SDS011;530;51.448;7.238;2023-02-04T02:30:09;12.77;;;3.67;;
1082;SDS011;530;51.448;7.238;2023-02-04T02:32:35;16.50;;;4.27;;
1082;SDS011;530;51.448;7.238;2023-02-04T02:35:02;20.43;;;4.27;;
1082;SDS011;530;51.448;7.238;2023-02-04T02:37:28;17.93;;;3.80;;
1082;SDS011;530;51.448;7.238;2023-02-04T02:39:54;20.27;;;4.50;;
1082;SDS011;530;51.448;7.238;2023-02-04T02:42:20;24.60;;;4.87;;
1082;SDS011;530;51.448;7.238;2023-02-04T02:44:46;17.93;;;4.70;;
1082;SDS011;530;51.448;7.238;2023-02-04T02:47:17;14.40;;;4.40;;
1082;SDS011;530;51.448;7.238;2023-02-04T02:49:46;12.30;;;3.93;;
1082;SDS011;530;51.448;7.238;2023-02-04T02:52:14;17.30;;;4.70;;
1082;SDS011;530;51.448;7.238;2023-02-04T02:54:41;16.80;;;3.87;;
1082;SDS011;530;51.448;7.238;2023-02-04T02:57:20;18.37;;;4.23;;
1082;SDS011;530;51.448;7.238;2023-02-04T02:59:47;20.83;;;4.27;;
1082;SDS011;530;51.448;7.238;2023-02-04T03:02:14;14.53;;;4.23;;
1082;SDS011;530;51.448;7.238;2023-02-04T03:04:44;16.90;;;5.13;;
1082;SDS011;530;51.448;7.238;2023-02-04T03:07:12;15.50;;;4.23;;
1082;SDS011;530;51.448;7.238;2023-02-04T03:09:39;19.27;;;5.00;;
1082;SDS011;530;51.448;7.238;2023-02-04T03:12:05;25.97;;;4.70;;
1082;SDS011;530;51.448;7.238;2023-02-04T03:14:31;22.57;;;4.13;;
1082;SDS011;530;51.448;7.238;2023-02-04T03:16:57;16.30;;;4.23;;
1082;SDS011;530;51.448;7.238;2023-02-04T03:19:25;15.57;;;4.97;;
1082;SDS011;530;51.448;7.238;2023-02-04T03:21:51;18.60;;;4.50;;
1082;SDS011;530;51.448;7.238;2023-02-04T03:24:19;12.27;;;3.83;;
1082;SDS011;530;51.448;7.238;2023-02-04T03:26:45;16.00;;;3.83;;
1082;SDS011;530;51.448;7.238;2023-02-04T03:29:11;16.17;;;3.83;;
1082;SDS011;530;51.448;7.238;2023-02-04T03:31:37;20.53;;;5.57;;
1082;SDS011;530;51.448;7.238;2023-02-04T03:34:02;13.03;;;3.40;;
1082;SDS011;530;51.448;7.238;2023-02-04T03:36:29;16.53;;;3.93;;
1082;SDS011;530;51.448;7.238;2023-02-04T03:38:55;14.70;;;3.37;;
1082;SDS011;530;51.448;7.238;2023-02-04T03:41:20;16.33;;;4.53;;
1082;SDS011;530;51.448;7.238;2023-02-04T03:43:46;17.30;;;4.77;;
1082;SDS011;530;51.448;7.238;2023-02-04T03:46:12;13.00;;;4.00;;
1082;SDS011;530;51.448;7.238;2023-02-04T03:48:37;15.20;;;4.80;;
1082;SDS011;530;51.448;7.238;2023-02-04T03:51:03;15.97;;;4.67;;
1082;SDS011;530;51.448;7.238;2023-02-04T03:53:29;14.17;;;4.60;;
1082;SDS011;530;51.448;7.238;2023-02-04T03:55:54;13.47;;;3.90;;
1082;SDS011;530;51.448;7.238;2023-02-04T03:58:20;21.80;;;4.10;;
1082;SDS011;530;51.448;7.238;2023-02-04T04:00:46;19.67;;;4.20;;
1082;SDS011;530;51.448;7.238;2023-02-04T04:03:12;16.63;;;4.73;;
1082;SDS011;530;51.448;7.238;2023-02-04T04:05:37;16.37;;;4.13;;
1082;SDS011;530;51.448;7.238;2023-02-04T04:08:03;20.10;;;4.30;;
1082;SDS011;530;51.448;7.238;2023-02-04T04:10:29;17.63;;;4.23;;
1082;SDS011;530;51.448;7.238;2023-02-04T04:12:54;15.67;;;4.20;;
1082;SDS011;530;51.448;7.238;2023-02-04T04:15:20;20.90;;;4.73;;
1082;SDS011;530;51.448;7.238;2023-02-04T04:17:46;19.27;;;5.37;;
1082;SDS011;530;51.448;7.238;2023-02-04T04:20:11;15.37;;;4.50;;
1082;SDS011;530;51.448;7.238;2023-02-04T04:22:37;18.27;;;4.70;;
1082;SDS011;530;51.448;7.238;2023-02-04T04:25:03;12.57;;;3.70;;
1082;SDS011;530;51.448;7.238;2023-02-04T04:27:29;13.93;;;4.27;;
1082;SDS011;530;51.448;7.238;2023-02-04T04:29:55;18.73;;;4.60;;
1082;SDS011;530;51.448;7.238;2023-02-04T04:32:21;22.90;;;4.77;;
1082;SDS011;530;51.448;7.238;2023-02-04T04:34:46;16.43;;;4.40;;
1082;SDS011;530;51.448;7.238;2023-02-04T04:37:12;16.60;;;4.30;;
1082;SDS011;530;51.448;7.238;2023-02-04T04:39:38;12.10;;;4.00;;
1082;SDS011;530;51.448;7.238;2023-02-04T04:42:04;15.33;;;5.10;;
1082;SDS011;530;51.448;7.238;2023-02-04T04:44:29;29.30;;;4.70;;
1082;SDS011;530;51.448;7.238;2023-02-04T04:46:55;13.23;;;5.60;;
1082;SDS011;530;51.448;7.238;2023-02-04T04:49:21;17.20;;;4.20;;
1082;SDS011;530;51.448;7.238;2023-02-04T04:51:46;10.73;;;3.73;;
1082;SDS011;530;51.448;7.238;2023-02-04T04:54:12;22.03;;;5.57;;
1082;SDS011;530;51.448;7.238;2023-02-04T04:56:38;18.87;;;5.00;;
1082;SDS011;530;51.448;7.238;2023-02-04T04:59:03;19.70;;;4.10;;
1082;SDS011;530;51.448;7.238;2023-02-04T05:01:29;16.33;;;4.10;;
1082;SDS011;530;51.448;7.238;2023-02-04T05:03:54;17.10;;;4.40;;
1082;SDS011;530;51.448;7.238;2023-02-04T05:06:20;19.60;;;4.67;;
1082;SDS011;530;51.448;7.238;2023-02-04T05:08:49;22.00;;;5.30;;
1082;SDS011;530;51.448;7.238;2023-02-04T05:11:19;19.17;;;4.40;;
1082;SDS011;530;51.448;7.238;2023-02-04T05:13:45;19.17;;;4.70;;
1082;SDS011;530;51.448;7.238;2023-02-04T05:16:11;23.40;;;4.87;;
1082;SDS011;530;51.448;7.238;2023-02-04T05:18:37;13.77;;;4.63;;
1082;SDS011;530;51.448;7.238;2023-02-04T05:21:05;11.80;;;3.67;;
1082;SDS011;530;51.448;7.238;2023-02-04T05:23:32;24.93;;;4.10;;
1082;SDS011;530;51.448;7.238;2023-02-04T05:25:58;10.13;;;3.90;;
1082;SDS011;530;51.448;7.238;2023-02-04T05:28:24;20.07;;;5.93;;
1082;SDS011;530;51.448;7.238;2023-02-04T05:30:49;18.07;;;4.63;;
1082;SDS011;530;51.448;7.238;2023-02-04T05:33:15;18.00;;;4.00;;
1082;SDS011;530;51.448;7.238;2023-02-04T05:35:41;19.90;;;4.70;;
1082;SDS011;530;51.448;7.238;2023-02-04T05:38:06;17.20;;;4.53;;
1082;SDS011;530;51.448;7.238;2023-02-04T05:40:32;18.47;;;4.40;;
1082;SDS011;530;51.448;7.238;2023-02-04T05:42:57;14.10;;;4.43;;
1082;SDS011;530;51.448;7.238;2023-02-04T05:45:23;17.13;;;3.93;;
1082;SDS011;530;51.448;7.238;2023-02-04T05:47:49;18.77;;;4.40;;
1082;SDS011;530;51.448;7.238;2023-02-04T05:50:14;15.30;;;4.60;;
1082;SDS011;530;51.448;7.238;2023-02-04T05:52:40;14.70;;;4.30;;
1082;SDS011;530;51.448;7.238;2023-02-04T05:55:07;21.53;;;4.83;;
1082;SDS011;530;51.448;7.238;2023-02-04T05:57:37;16.23;;;4.70;;
1082;SDS011;530;51.448;7.238;2023-02-04T06:00:06;16.63;;;4.70;;
1082;SDS011;530;51.448;7.238;2023-02-04T06:02:32;9.33;;;3.70;;
1082;SDS011;530;51.448;7.238;2023-02-04T06:04:58;22.40;;;5.47;;
1082;SDS011;530;51.448;7.238;2023-02-04T06:07:24;23.60;;;6.33;;
1082;SDS011;530;51.448;7.238;2023-02-04T06:09:50;24.40;;;4.87;;
1082;SDS011;530;51.448;7.238;2023-02-04T06:12:15;19.70;;;5.37;;
1082;SDS011;530;51.448;7.238;2023-02-04T06:14:41;12.43;;;4.80;;
1082;SDS011;530;51.448;7.238;2023-02-04T06:17:07;22.57;;;5.00;;
1082;SDS011;530;51.448;7.238;2023-02-04T06:19:32;15.80;;;3.90;;
1082;SDS011;530;51.448;7.238;2023-02-04T06:21:58;17.70;;;4.60;;
1082;SDS011;530;51.448;7.238;2023-02-04T06:24:23;17.40;;;4.47;;
1082;SDS011;530;51.448;7.238;2023-02-04T06:26:49;16.60;;;4.37;;
1082;SDS011;530;51.448;7.238;2023-02-04T06:29:15;18.80;;;4.80;;
1082;SDS011;530;51.448;7.238;2023-02-04T06:31:40;17.00;;;3.60;;
1082;SDS011;530;51.448;7.238;2023-02-04T06:34:06;15.53;;;4.13;;
1082;SDS011;530;51.448;7.238;2023-02-04T06:36:32;18.53;;;4.90;;
1082;SDS011;530;51.448;7.238;2023-02-04T06:38:57;17.70;;;3.93;;
1082;SDS011;530;51.448;7.238;2023-02-04T06:41:23;12.90;;;5.23;;
1082;SDS011;530;51.448;7.238;2023-02-04T06:43:48;17.90;;;3.90;;
1082;SDS011;530;51.448;7.238;2023-02-04T06:46:14;18.47;;;4.37;;
1082;SDS011;530;51.448;7.238;2023-02-04T06:48:40;20.43;;;4.03;;
1082;SDS011;530;51.448;7.238;2023-02-04T06:51:05;17.17;;;4.50;;
1082;SDS011;530;51.448;7.238;2023-02-04T06:53:31;14.30;;;5.03;;
1082;SDS011;530;51.448;7.238;2023-02-04T06:55:57;19.70;;;5.47;;
1082;SDS011;530;51.448;7.238;2023-02-04T06:58:23;21.40;;;6.30;;
1082;SDS011;530;51.448;7.238;2023-02-04T07:00:48;14.70;;;3.50;;
1082;SDS011;530;51.448;7.238;2023-02-04T07:03:14;19.47;;;4.50;;
1082;SDS011;530;51.448;7.238;2023-02-04T07:05:40;23.07;;;5.33;;
1082;SDS011;530;51.448;7.238;2023-02-04T07:08:05;19.47;;;4.27;;
1082;SDS011;530;51.448;7.238;2023-02-04T07:10:31;16.37;;;4.07;;
1082;SDS011;530;51.448;7.238;2023-02-04T07:12:56;13.83;;;3.80;;
1082;SDS011;530;51.448;7.238;2023-02-04T07:15:22;17.80;;;4.20;;
1082;SDS011;530;51.448;7.238;2023-02-04T07:17:48;15.60;;;4.53;;
1082;SDS011;530;51.448;7.238;2023-02-04T07:20:14;13.63;;;4.00;;
1082;SDS011;530;51.448;7.238;2023-02-04T07:22:39;15.80;;;4.50;;
1082;SDS011;530;51.448;7.238;2023-02-04T07:25:06;12.87;;;3.13;;
1082;SDS011;530;51.448;7.238;2023-02-04T07:27:32;23.07;;;5.77;;
1082;SDS011;530;51.448;7.238;2023-02-04T07:29:58;21.50;;;5.20;;
1082;SDS011;530;51.448;7.238;2023-02-04T07:32:23;14.83;;;4.23;;
1082;SDS011;530;51.448;7.238;2023-02-04T07:34:51;18.00;;;6.40;;
1082;SDS011;530;51.448;7.238;2023-02-04T07:37:17;12.00;;;3.40;;
1082;SDS011;530;51.448;7.238;2023-02-04T07:39:44;14.60;;;5.20;;
1082;SDS011;530;51.448;7.238;2023-02-04T07:42:10;18.53;;;4.33;;
1082;SDS011;530;51.448;7.238;2023-02-04T07:44:35;20.80;;;4.20;;
1082;SDS011;530;51.448;7.238;2023-02-04T07:47:02;14.17;;;3.83;;
1082;SDS011;530;51.448;7.238;2023-02-04T07:49:28;21.03;;;5.17;;
1082;SDS011;530;51.448;7.238;2023-02-04T07:51:54;19.00;;;5.30;;
1082;SDS011;530;51.448;7.238;2023-02-04T07:54:20;14.73;;;4.70;;
1082;SDS011;530;51.448;7.238;2023-02-04T07:56:45;15.47;;;5.20;;
1082;SDS011;530;51.448;7.238;2023-02-04T07:59:11;20.27;;;4.77;;
1082;SDS011;530;51.448;7.238;2023-02-04T08:01:37;22.57;;;5.77;;
1082;SDS011;530;51.448;7.238;2023-02-04T08:04:02;20.90;;;5.10;;
1082;SDS011;530;51.448;7.238;2023-02-04T08:06:28;16.50;;;5.60;;
1082;SDS011;530;51.448;7.238;2023-02-04T08:08:53;14.47;;;5.80;;
1082;SDS011;530;51.448;7.238;2023-02-04T08:11:19;24.40;;;6.10;;
1082;SDS011;530;51.448;7.238;2023-02-04T08:13:45;19.10;;;5.37;;
1082;SDS011;530;51.448;7.238;2023-02-04T08:16:10;18.23;;;6.07;;
1082;SDS011;530;51.448;7.238;2023-02-04T08:18:36;22.90;;;6.13;;
1082;SDS011;530;51.448;7.238;2023-02-04T08:21:02;22.43;;;4.93;;
1082;SDS011;530;51.448;7.238;2023-02-04T08:23:29;14.77;;;4.70;;
1082;SDS011;530;51.448;7.238;2023-02-04T08:25:54;21.83;;;6.73;;
1082;SDS011;530;51.448;7.238;2023-02-04T08:28:20;17.87;;;6.60;;
1082;SDS011;530;51.448;7.238;2023-02-04T08:30:46;16.97;;;5.90;;
1082;SDS011;530;51.448;7.238;2023-02-04T08:33:11;24.33;;;5.73;;
1082;SDS011;530;51.448;7.238;2023-02-04T08:35:37;16.73;;;5.30;;
1082;SDS011;530;51.448;7.238;2023-02-04T08:38:02;20.37;;;5.27;;
1082;SDS011;530;51.448;7.238;2023-02-04T08:40:28;14.80;;;4.50;;
1082;SDS011;530;51.448;7.238;2023-02-04T08:42:54;14.20;;;5.13;;
1082;SDS011;530;51.448;7.238;2023-02-04T08:45:19;18.00;;;5.33;;
1082;SDS011;530;51.448;7.238;2023-02-04T08:47:45;20.13;;;5.10;;
1082;SDS011;530;51.448;7.238;2023-02-04T08:50:11;21.20;;;5.97;;
1082;SDS011;530;51.448;7.238;2023-02-04T08:52:37;16.27;;;4.90;;
1082;SDS011;530;51.448;7.238;2023-02-04T08:55:02;20.57;;;4.77;;
1082;SDS011;530;51.448;7.238;2023-02-04T08:57:28;15.70;;;4.47;;
1082;SDS011;530;51.448;7.238;2023-02-04T08:59:54;16.30;;;4.60;;
1082;SDS011;530;51.448;7.238;2023-02-04T09:02:20;18.33;;;4.60;;
1082;SDS011;530;51.448;7.238;2023-02-04T09:04:45;25.97;;;6.73;;
1082;SDS011;530;51.448;7.238;2023-02-04T09:07:11;22.17;;;5.70;;
1082;SDS011;530;51.448;7.238;2023-02-04T09:09:36;23.17;;;6.27;;
1082;SDS011;530;51.448;7.238;2023-02-04T09:12:02;24.67;;;6.80;;
1082;SDS011;530;51.448;7.238;2023-02-04T09:14:28;23.60;;;4.90;;
1082;SDS011;530;51.448;7.238;2023-02-04T09:16:53;20.47;;;5.77;;
1082;SDS011;530;51.448;7.238;2023-02-04T09:19:19;19.93;;;6.10;;
1082;SDS011;530;51.448;7.238;2023-02-04T09:21:49;25.90;;;6.03;;
1082;SDS011;530;51.448;7.238;2023-02-04T09:24:18;23.23;;;4.77;;
1082;SDS011;530;51.448;7.238;2023-02-04T09:26:47;20.03;;;5.13;;
1082;SDS011;530;51.448;7.238;2023-02-04T09:29:13;19.13;;;6.17;;
1082;SDS011;530;51.448;7.238;2023-02-04T09:31:38;24.67;;;5.53;;
1082;SDS011;530;51.448;7.238;2023-02-04T09:34:04;25.47;;;6.03;;
1082;SDS011;530;51.448;7.238;2023-02-04T09:36:31;22.93;;;5.60;;
1082;SDS011;530;51.448;7.238;2023-02-04T09:39:02;24.33;;;5.90;;
1082;SDS011;530;51.448;7.238;2023-02-04T09:41:29;26.43;;;6.70;;
1082;SDS011;530;51.448;7.238;2023-02-04T09:43:56;19.00;;;5.17;;
1082;SDS011;530;51.448;7.238;2023-02-04T09:46:24;21.97;;;5.90;;
1082;SDS011;530;51.448;7.238;2023-02-04T09:48:52;25.17;;;6.00;;
1082;SDS011;530;51.448;7.238;2023-02-04T09:51:19;20.53;;;5.60;;
1082;SDS011;530;51.448;7.238;2023-02-04T09:53:47;23.60;;;6.07;;
1082;SDS011;530;51.448;7.238;2023-02-04T09:56:15;20.67;;;6.07;;
1082;SDS011;530;51.448;7.238;2023-02-04T09:58:41;20.83;;;6.70;;
1082;SDS011;530;51.448;7.238;2023-02-04T10:01:11;24.27;;;6.10;;
1082;SDS011;530;51.448;7.238;2023-02-04T10:03:40;20.23;;;6.20;;
1082;SDS011;530;51.448;7.238;2023-02-04T10:06:11;22.87;;;6.90;;
1082;SDS011;530;51.448;7.238;2023-02-04T10:08:38;25.70;;;6.30;;
1082;SDS011;530;51.448;7.238;2023-02-04T10:11:04;20.63;;;6.70;;
1082;SDS011;530;51.448;7.238;2023-02-04T10:13:33;21.43;;;6.47;;
1082;SDS011;530;51.448;7.238;2023-02-04T10:16:02;22.10;;;6.37;;
1082;SDS011;530;51.448;7.238;2023-02-04T10:18:36;17.57;;;5.80;;
1082;SDS011;530;51.448;7.238;2023-02-04T10:21:23;15.63;;;6.23;;
1082;SDS011;530;51.448;7.238;2023-02-04T10:23:53;15.23;;;5.90;;
1082;SDS011;530;51.448;7.238;2023-02-04T10:26:24;18.30;;;6.77;;
1082;SDS011;530;51.448;7.238;2023-02-04T10:28:59;25.53;;;6.63;;
1082;SDS011;530;51.448;7.238;2023-02-04T10:34:06;19.63;;;6.60;;
1082;SDS011;530;51.448;7.238;2023-02-04T10:36:39;21.90;;;8.00;;
1082;SDS011;530;51.448;7.238;2023-02-04T10:41:37;19.53;;;6.83;;
1082;SDS011;530;51.448;7.238;2023-02-04T10:44:08;19.00;;;7.57;;
1082;SDS011;530;51.448;7.238;2023-02-04T10:46:36;24.30;;;6.87;;
1082;SDS011;530;51.448;7.238;2023-02-04T10:49:18;15.57;;;7.43;;
1082;SDS011;530;51.448;7.238;2023-02-04T10:51:47;20.27;;;7.07;;
1082;SDS011;530;51.448;7.238;2023-02-04T10:54:14;16.43;;;6.80;;
1082;SDS011;530;51.448;7.238;2023-02-04T10:59:28;22.57;;;8.73;;
1082;SDS011;530;51.448;7.238;2023-02-04T11:01:54;27.93;;;8.50;;
1082;SDS011;530;51.448;7.238;2023-02-04T11:04:21;16.27;;;6.90;;
1082;SDS011;530;51.448;7.238;2023-02-04T11:06:47;24.63;;;9.97;;
1082;SDS011;530;51.448;7.238;2023-02-04T11:09:14;22.07;;;11.03;;
1082;SDS011;530;51.448;7.238;2023-02-04T11:11:46;26.70;;;9.20;;
1082;SDS011;530;51.448;7.238;2023-02-04T11:14:24;22.17;;;8.53;;
1082;SDS011;530;51.448;7.238;2023-02-04T11:16:53;32.07;;;9.27;;
1082;SDS011;530;51.448;7.238;2023-02-04T11:19:34;34.27;;;10.87;;
1082;SDS011;530;51.448;7.238;2023-02-04T11:22:21;23.23;;;10.40;;
1082;SDS011;530;51.448;7.238;2023-02-04T11:24:49;27.83;;;11.03;;
1082;SDS011;530;51.448;7.238;2023-02-04T11:30:05;34.20;;;11.43;;
1082;SDS011;530;51.448;7.238;2023-02-04T11:32:42;22.60;;;11.03;;
1082;SDS011;530;51.448;7.238;2023-02-04T11:37:40;22.77;;;11.30;;
1082;SDS011;530;51.448;7.238;2023-02-04T11:42:56;18.93;;;11.27;;
1082;SDS011;530;51.448;7.238;2023-02-04T11:45:24;22.03;;;10.00;;
1082;SDS011;530;51.448;7.238;2023-02-04T11:47:51;21.67;;;12.00;;
1082;SDS011;530;51.448;7.238;2023-02-04T11:50:21;20.20;;;9.33;;
1082;SDS011;530;51.448;7.238;2023-02-04T11:52:49;20.60;;;11.80;;
1082;SDS011;530;51.448;7.238;2023-02-04T11:55:15;27.03;;;11.00;;
1082;SDS011;530;51.448;7.238;2023-02-04T11:57:43;24.73;;;10.80;;
1082;SDS011;530;51.448;7.238;2023-02-04T12:00:13;20.77;;;10.97;;
1082;SDS011;530;51.448;7.238;2023-02-04T12:02:48;21.07;;;9.97;;
1082;SDS011;530;51.448;7.238;2023-02-04T12:05:16;18.87;;;10.07;;
1082;SDS011;530;51.448;7.238;2023-02-04T12:07:44;27.40;;;10.87;;
1082;SDS011;530;51.448;7.238;2023-02-04T12:12:49;20.20;;;10.47;;
1082;SDS011;530;51.448;7.238;2023-02-04T12:15:24;24.70;;;11.00;;
1082;SDS011;530;51.448;7.238;2023-02-04T12:18:03;26.27;;;10.40;;
1082;SDS011;530;51.448;7.238;2023-02-04T12:20:36;27.30;;;10.30;;
1082;SDS011;530;51.448;7.238;2023-02-04T12:23:02;35.20;;;12.53;;
1082;SDS011;530;51.448;7.238;2023-02-04T12:25:29;25.70;;;10.80;;
1082;SDS011;530;51.448;7.238;2023-02-04T12:27:55;21.80;;;9.37;;
1082;SDS011;530;51.448;7.238;2023-02-04T12:30:21;21.47;;;9.17;;
1082;SDS011;530;51.448;7.238;2023-02-04T12:32:49;20.37;;;9.43;;
1082;SDS011;530;51.448;7.238;2023-02-04T12:35:15;23.80;;;9.67;;
1082;SDS011;530;51.448;7.238;2023-02-04T12:37:41;20.23;;;8.80;;
1082;SDS011;530;51.448;7.238;2023-02-04T12:40:08;27.13;;;8.93;;
1082;SDS011;530;51.448;7.238;2023-02-04T12:42:38;19.40;;;9.03;;
1082;SDS011;530;51.448;7.238;2023-02-04T12:45:04;27.90;;;9.43;;
1082;SDS011;530;51.448;7.238;2023-02-04T12:47:30;27.43;;;10.53;;
1082;SDS011;530;51.448;7.238;2023-02-04T12:49:55;19.90;;;10.10;;
1082;SDS011;530;51.448;7.238;2023-02-04T12:52:21;17.37;;;9.73;;
1082;SDS011;530;51.448;7.238;2023-02-04T12:54:47;16.00;;;9.67;;
1082;SDS011;530;51.448;7.238;2023-02-04T12:57:13;17.43;;;9.33;;
1082;SDS011;530;51.448;7.238;2023-02-04T12:59:43;16.77;;;9.00;;
1082;SDS011;530;51.448;7.238;2023-02-04T13:02:13;20.57;;;8.70;;
1082;SDS011;530;51.448;7.238;2023-02-04T13:04:39;18.40;;;8.90;;
1082;SDS011;530;51.448;7.238;2023-02-04T13:07:05;12.90;;;8.43;;
1082;SDS011;530;51.448;7.238;2023-02-04T13:09:32;23.07;;;9.10;;
1082;SDS011;530;51.448;7.238;2023-02-04T13:11:58;18.97;;;8.73;;
1082;SDS011;530;51.448;7.238;2023-02-04T13:14:24;25.27;;;10.00;;
1082;SDS011;530;51.448;7.238;2023-02-04T13:16:50;25.87;;;9.80;;
1082;SDS011;530;51.448;7.238;2023-02-04T13:19:15;18.13;;;8.07;;
1082;SDS011;530;51.448;7.238;2023-02-04T13:21:41;19.40;;;8.00;;
1082;SDS011;530;51.448;7.238;2023-02-04T13:24:06;21.20;;;8.47;;
1082;SDS011;530;51.448;7.238;2023-02-04T13:26:32;17.17;;;8.37;;
1082;SDS011;530;51.448;7.238;2023-02-04T13:28:58;14.87;;;7.60;;
1082;SDS011;530;51.448;7.238;2023-02-04T13:31:23;14.83;;;8.10;;
1082;SDS011;530;51.448;7.238;2023-02-04T13:33:49;14.30;;;8.10;;
1082;SDS011;530;51.448;7.238;2023-02-04T13:36:15;18.03;;;7.37;;
1082;SDS011;530;51.448;7.238;2023-02-04T13:38:40;15.87;;;7.27;;
1082;SDS011;530;51.448;7.238;2023-02-04T13:41:06;22.37;;;8.40;;
1082;SDS011;530;51.448;7.238;2023-02-04T13:43:32;21.70;;;8.20;;
1082;SDS011;530;51.448;7.238;2023-02-04T13:45:57;20.37;;;7.80;;
1082;SDS011;530;51.448;7.238;2023-02-04T13:48:24;19.33;;;7.87;;
1082;SDS011;530;51.448;7.238;2023-02-04T13:50:49;12.20;;;7.10;;
1082;SDS011;530;51.448;7.238;2023-02-04T13:53:15;15.77;;;7.53;;
1082;SDS011;530;51.448;7.238;2023-02-04T13:55:41;17.87;;;9.00;;
1082;SDS011;530;51.448;7.238;2023-02-04T13:58:07;20.20;;;7.90;;
1082;SDS011;530;51.448;7.238;2023-02-04T14:00:32;17.27;;;7.80;;
1082;SDS011;530;51.448;7.238;2023-02-04T14:02:58;28.43;;;8.83;;
1082;SDS011;530;51.448;7.238;2023-02-04T14:05:24;13.70;;;7.80;;
1082;SDS011;530;51.448;7.238;2023-02-04T14:07:49;19.60;;;8.80;;
1082;SDS011;530;51.448;7.238;2023-02-04T14:10:16;21.70;;;8.37;;
1082;SDS011;530;51.448;7.238;2023-02-04T14:12:42;20.90;;;8.60;;
1082;SDS011;530;51.448;7.238;2023-02-04T14:15:08;15.27;;;8.00;;
1082;SDS011;530;51.448;7.238;2023-02-04T14:17:34;24.37;;;9.93;;
1082;SDS011;530;51.448;7.238;2023-02-04T14:20:00;20.80;;;8.30;;
1082;SDS011;530;51.448;7.238;2023-02-04T14:22:25;16.87;;;8.40;;
1082;SDS011;530;51.448;7.238;2023-02-04T14:24:51;17.67;;;8.30;;
1082;SDS011;530;51.448;7.238;2023-02-04T14:27:17;24.83;;;9.40;;
1082;SDS011;530;51.448;7.238;2023-02-04T14:29:42;23.40;;;10.40;;
1082;SDS011;530;51.448;7.238;2023-02-04T14:32:08;17.10;;;8.70;;
1082;SDS011;530;51.448;7.238;2023-02-04T14:34:33;21.60;;;10.27;;
1082;SDS011;530;51.448;7.238;2023-02-04T14:36:59;14.50;;;8.97;;
1082;SDS011;530;51.448;7.238;2023-02-04T14:39:25;22.03;;;10.80;;
1082;SDS011;530;51.448;7.238;2023-02-04T14:41:50;14.40;;;9.00;;
1082;SDS011;530;51.448;7.238;2023-02-04T14:44:16;19.47;;;8.57;;
1082;SDS011;530;51.448;7.238;2023-02-04T14:46:45;19.03;;;9.00;;
1082;SDS011;530;51.448;7.238;2023-02-04T14:49:13;23.67;;;9.30;;
1082;SDS011;530;51.448;7.238;2023-02-04T14:51:39;15.07;;;8.67;;
1082;SDS011;530;51.448;7.238;2023-02-04T14:54:05;16.63;;;9.03;;
1082;SDS011;530;51.448;7.238;2023-02-04T14:56:30;16.80;;;9.00;;
1082;SDS011;530;51.448;7.238;2023-02-04T14:58:56;14.53;;;7.83;;
1082;SDS011;530;51.448;7.238;2023-02-04T15:01:22;13.63;;;8.57;;
1082;SDS011;530;51.448;7.238;2023-02-04T15:03:47;16.87;;;9.73;;
1082;SDS011;530;51.448;7.238;2023-02-04T15:06:13;15.70;;;8.70;;
1082;SDS011;530;51.448;7.238;2023-02-04T15:08:39;17.67;;;8.70;;
1082;SDS011;530;51.448;7.238;2023-02-04T15:11:05;17.27;;;9.40;;
1082;SDS011;530;51.448;7.238;2023-02-04T15:13:31;21.27;;;10.00;;
1082;SDS011;530;51.448;7.238;2023-02-04T15:15:56;19.83;;;8.83;;
1082;SDS011;530;51.448;7.238;2023-02-04T15:18:22;19.13;;;8.90;;
1082;SDS011;530;51.448;7.238;2023-02-04T15:20:48;16.87;;;9.90;;
1082;SDS011;530;51.448;7.238;2023-02-04T15:23:13;14.73;;;9.17;;
1082;SDS011;530;51.448;7.238;2023-02-04T15:25:39;24.83;;;10.53;;
1082;SDS011;530;51.448;7.238;2023-02-04T15:28:05;14.40;;;8.67;;
1082;SDS011;530;51.448;7.238;2023-02-04T15:30:31;16.63;;;8.50;;
1082;SDS011;530;51.448;7.238;2023-02-04T15:32:56;20.43;;;9.50;;